sensor_id;sensor_type;location;lat;lon;timestamp;P1;durP1;ratioP1;P2;durP2;ratioP2
6143;SDS011;3103;49.492;8.474;2023-02-01T00:00:16;5.10;;;4.27;;
6143;SDS011;3103;49.492;8.474;2023-02-01T00:02:43;4.80;;;3.47;;
6143;SDS011;3103;49.492;8.474;2023-02-01T00:05:09;5.17;;;3.83;;
6143;SDS011;3103;49.492;8.474;2023-02-01T00:07:37;5.53;;;3.83;;
6143;SDS011;3103;49.492;8.474;2023-02-01T00:10:04;5.07;;;4.17;;
6143;SDS011;3103;49.492;8.474;2023-02-01T00:12:31;6.33;;;3.53;;
6143;SDS011;3103;49.492;8.474;2023-02-01T00:14:58;4.97;;;3.10;;
6143;SDS011;3103;49.492;8.474;2023-02-01T00:17:25;4.53;;;3.40;;
6143;SDS011;3103;49.492;8.474;2023-02-01T00:19:52;4.23;;;3.30;;
6143;SDS011;3103;49.492;8.474;2023-02-01T00:22:18;7.03;;;3.57;;
6143;SDS011;3103;49.492;8.474;2023-02-01T00:24:45;4.47;;;3.70;;
6143;SDS011;3103;49.492;8.474;2023-02-01T00:27:12;5.30;;;4.03;;
6143;SDS011;3103;49.492;8.474;2023-02-01T00:29:44;4.80;;;3.33;;
6143;SDS011;3103;49.492;8.474;2023-02-01T00:32:11;5.37;;;4.20;;
6143;SDS011;3103;49.492;8.474;2023-02-01T00:34:38;4.63;;;3.40;;
6143;SDS011;3103;49.492;8.474;2023-02-01T00:37:05;5.03;;;4.00;;
6143;SDS011;3103;49.492;8.474;2023-02-01T00:39:32;5.67;;;4.57;;
6143;SDS011;3103;49.492;8.474;2023-02-01T00:41:59;12.07;;;4.87;;
6143;SDS011;3103;49.492;8.474;2023-02-01T00:44:27;7.50;;;4.97;;
6143;SDS011;3103;49.492;8.474;2023-02-01T00:46:54;5.40;;;4.23;;
6143;SDS011;3103;49.492;8.474;2023-02-01T00:49:20;6.17;;;3.80;;
6143;SDS011;3103;49.492;8.474;2023-02-01T00:51:48;5.17;;;4.03;;
6143;SDS011;3103;49.492;8.474;2023-02-01T00:54:14;4.37;;;3.47;;
6143;SDS011;3103;49.492;8.474;2023-02-01T00:56:41;5.53;;;3.97;;
6143;SDS011;3103;49.492;8.474;2023-02-01T00:59:10;4.90;;;3.60;;
6143;SDS011;3103;49.492;8.474;2023-02-01T01:01:38;5.40;;;3.80;;
6143;SDS011;3103;49.492;8.474;2023-02-01T01:04:05;6.20;;;4.03;;
6143;SDS011;3103;49.492;8.474;2023-02-01T01:06:32;5.10;;;4.30;;
6143;SDS011;3103;49.492;8.474;2023-02-01T01:09:03;4.37;;;3.67;;
6143;SDS011;3103;49.492;8.474;2023-02-01T01:11:33;7.17;;;4.23;;
6143;SDS011;3103;49.492;8.474;2023-02-01T01:14:04;4.40;;;3.53;;
6143;SDS011;3103;49.492;8.474;2023-02-01T01:16:32;6.37;;;3.47;;
6143;SDS011;3103;49.492;8.474;2023-02-01T01:18:59;9.03;;;4.63;;
6143;SDS011;3103;49.492;8.474;2023-02-01T01:21:26;8.03;;;4.87;;
6143;SDS011;3103;49.492;8.474;2023-02-01T01:23:54;6.27;;;4.33;;
6143;SDS011;3103;49.492;8.474;2023-02-01T01:26:21;6.10;;;4.87;;
6143;SDS011;3103;49.492;8.474;2023-02-01T01:28:51;9.27;;;5.17;;
6143;SDS011;3103;49.492;8.474;2023-02-01T01:31:19;8.73;;;5.70;;
6143;SDS011;3103;49.492;8.474;2023-02-01T01:33:50;11.43;;;5.00;;
6143;SDS011;3103;49.492;8.474;2023-02-01T01:36:19;13.33;;;6.67;;
6143;SDS011;3103;49.492;8.474;2023-02-01T01:38:46;7.90;;;4.40;;
6143;SDS011;3103;49.492;8.474;2023-02-01T01:41:15;6.80;;;4.33;;
6143;SDS011;3103;49.492;8.474;2023-02-01T01:43:54;8.30;;;4.60;;
6143;SDS011;3103;49.492;8.474;2023-02-01T01:46:25;7.30;;;4.40;;
6143;SDS011;3103;49.492;8.474;2023-02-01T01:51:45;5.70;;;3.67;;
6143;SDS011;3103;49.492;8.474;2023-02-01T01:54:17;7.70;;;3.90;;
6143;SDS011;3103;49.492;8.474;2023-02-01T01:56:48;9.00;;;4.67;;
6143;SDS011;3103;49.492;8.474;2023-02-01T01:59:20;4.70;;;3.77;;
6143;SDS011;3103;49.492;8.474;2023-02-01T02:01:48;6.03;;;3.73;;
6143;SDS011;3103;49.492;8.474;2023-02-01T02:04:14;6.70;;;3.67;;
6143;SDS011;3103;49.492;8.474;2023-02-01T02:09:23;6.93;;;3.83;;
6143;SDS011;3103;49.492;8.474;2023-02-01T02:11:50;6.07;;;3.37;;
6143;SDS011;3103;49.492;8.474;2023-02-01T02:14:17;5.27;;;3.60;;
6143;SDS011;3103;49.492;8.474;2023-02-01T02:20:15;4.37;;;3.87;;
6143;SDS011;3103;49.492;8.474;2023-02-01T02:23:02;4.77;;;4.00;;
6143;SDS011;3103;49.492;8.474;2023-02-01T02:25:55;4.83;;;3.33;;
6143;SDS011;3103;49.492;8.474;2023-02-01T02:31:40;4.73;;;3.70;;
6143;SDS011;3103;49.492;8.474;2023-02-01T02:34:46;4.60;;;3.57;;
6143;SDS011;3103;49.492;8.474;2023-02-01T02:42:44;5.03;;;3.93;;
6143;SDS011;3103;49.492;8.474;2023-02-01T02:48:47;4.77;;;3.60;;
6143;SDS011;3103;49.492;8.474;2023-02-01T02:51:23;4.23;;;3.80;;
6143;SDS011;3103;49.492;8.474;2023-02-01T02:54:15;4.07;;;3.50;;
6143;SDS011;3103;49.492;8.474;2023-02-01T02:57:05;4.97;;;3.60;;
6143;SDS011;3103;49.492;8.474;2023-02-01T02:59:55;6.93;;;4.17;;
6143;SDS011;3103;49.492;8.474;2023-02-01T03:02:43;4.87;;;3.63;;
6143;SDS011;3103;49.492;8.474;2023-02-01T03:05:34;4.90;;;3.40;;
6143;SDS011;3103;49.492;8.474;2023-02-01T03:08:10;4.57;;;3.70;;
6143;SDS011;3103;49.492;8.474;2023-02-01T03:10:46;6.33;;;3.80;;
6143;SDS011;3103;49.492;8.474;2023-02-01T03:16:11;6.13;;;3.40;;
6143;SDS011;3103;49.492;8.474;2023-02-01T03:18:50;6.20;;;3.70;;
6143;SDS011;3103;49.492;8.474;2023-02-01T03:21:37;5.43;;;3.23;;
6143;SDS011;3103;49.492;8.474;2023-02-01T03:24:23;4.43;;;3.60;;
6143;SDS011;3103;49.492;8.474;2023-02-01T03:27:02;4.63;;;3.70;;
6143;SDS011;3103;49.492;8.474;2023-02-01T03:29:46;4.07;;;3.67;;
6143;SDS011;3103;49.492;8.474;2023-02-01T03:32:17;4.53;;;3.43;;
6143;SDS011;3103;49.492;8.474;2023-02-01T03:34:45;6.77;;;4.73;;
6143;SDS011;3103;49.492;8.474;2023-02-01T03:37:17;4.70;;;3.40;;
6143;SDS011;3103;49.492;8.474;2023-02-01T03:39:56;5.03;;;3.60;;
6143;SDS011;3103;49.492;8.474;2023-02-01T03:45:05;5.47;;;3.77;;
6143;SDS011;3103;49.492;8.474;2023-02-01T03:47:37;3.57;;;3.20;;
6143;SDS011;3103;49.492;8.474;2023-02-01T03:50:18;5.83;;;3.90;;
6143;SDS011;3103;49.492;8.474;2023-02-01T03:53:09;4.87;;;3.30;;
6143;SDS011;3103;49.492;8.474;2023-02-01T03:55:43;3.93;;;3.23;;
6143;SDS011;3103;49.492;8.474;2023-02-01T03:58:14;5.90;;;3.33;;
6143;SDS011;3103;49.492;8.474;2023-02-01T04:00:45;4.10;;;3.67;;
6143;SDS011;3103;49.492;8.474;2023-02-01T04:03:17;5.13;;;4.03;;
6143;SDS011;3103;49.492;8.474;2023-02-01T04:05:44;4.33;;;3.20;;
6143;SDS011;3103;49.492;8.474;2023-02-01T04:08:11;5.27;;;3.50;;
6143;SDS011;3103;49.492;8.474;2023-02-01T04:10:38;9.90;;;4.10;;
6143;SDS011;3103;49.492;8.474;2023-02-01T04:13:05;8.53;;;4.03;;
6143;SDS011;3103;49.492;8.474;2023-02-01T04:15:31;8.40;;;3.87;;
6143;SDS011;3103;49.492;8.474;2023-02-01T04:18:00;5.87;;;3.80;;
6143;SDS011;3103;49.492;8.474;2023-02-01T04:20:27;5.03;;;3.70;;
6143;SDS011;3103;49.492;8.474;2023-02-01T04:22:54;6.40;;;3.40;;
6143;SDS011;3103;49.492;8.474;2023-02-01T04:25:21;6.47;;;3.67;;
6143;SDS011;3103;49.492;8.474;2023-02-01T04:27:48;6.73;;;4.07;;
6143;SDS011;3103;49.492;8.474;2023-02-01T04:30:15;5.97;;;4.13;;
6143;SDS011;3103;49.492;8.474;2023-02-01T04:32:42;5.83;;;3.53;;
6143;SDS011;3103;49.492;8.474;2023-02-01T04:35:08;9.40;;;4.10;;
6143;SDS011;3103;49.492;8.474;2023-02-01T04:37:35;6.03;;;3.87;;
6143;SDS011;3103;49.492;8.474;2023-02-01T04:40:02;6.13;;;3.53;;
6143;SDS011;3103;49.492;8.474;2023-02-01T04:42:30;8.13;;;3.83;;
6143;SDS011;3103;49.492;8.474;2023-02-01T04:44:57;4.13;;;3.40;;
6143;SDS011;3103;49.492;8.474;2023-02-01T04:47:24;5.03;;;3.97;;
6143;SDS011;3103;49.492;8.474;2023-02-01T04:49:50;4.67;;;3.57;;
6143;SDS011;3103;49.492;8.474;2023-02-01T04:52:17;5.33;;;3.60;;
6143;SDS011;3103;49.492;8.474;2023-02-01T04:54:43;6.37;;;4.30;;
6143;SDS011;3103;49.492;8.474;2023-02-01T04:57:10;6.30;;;3.67;;
6143;SDS011;3103;49.492;8.474;2023-02-01T04:59:39;10.07;;;4.33;;
6143;SDS011;3103;49.492;8.474;2023-02-01T05:02:06;7.10;;;3.47;;
6143;SDS011;3103;49.492;8.474;2023-02-01T05:04:33;5.13;;;3.67;;
6143;SDS011;3103;49.492;8.474;2023-02-01T05:06:59;6.53;;;3.83;;
6143;SDS011;3103;49.492;8.474;2023-02-01T05:09:26;5.07;;;3.40;;
6143;SDS011;3103;49.492;8.474;2023-02-01T05:11:53;6.97;;;3.97;;
6143;SDS011;3103;49.492;8.474;2023-02-01T05:14:38;7.43;;;4.43;;
6143;SDS011;3103;49.492;8.474;2023-02-01T05:17:04;6.77;;;3.67;;
6143;SDS011;3103;49.492;8.474;2023-02-01T05:19:31;6.20;;;3.80;;
6143;SDS011;3103;49.492;8.474;2023-02-01T05:21:58;9.10;;;3.73;;
6143;SDS011;3103;49.492;8.474;2023-02-01T05:24:25;7.27;;;3.50;;
6143;SDS011;3103;49.492;8.474;2023-02-01T05:26:53;6.77;;;3.50;;
6143;SDS011;3103;49.492;8.474;2023-02-01T05:29:20;5.10;;;3.53;;
6143;SDS011;3103;49.492;8.474;2023-02-01T05:31:47;7.37;;;3.67;;
6143;SDS011;3103;49.492;8.474;2023-02-01T05:34:14;6.47;;;3.73;;
6143;SDS011;3103;49.492;8.474;2023-02-01T05:36:42;7.73;;;3.70;;
6143;SDS011;3103;49.492;8.474;2023-02-01T05:39:09;7.23;;;3.80;;
6143;SDS011;3103;49.492;8.474;2023-02-01T05:41:36;5.30;;;3.47;;
6143;SDS011;3103;49.492;8.474;2023-02-01T05:44:03;7.13;;;3.30;;
6143;SDS011;3103;49.492;8.474;2023-02-01T05:46:31;7.03;;;3.80;;
6143;SDS011;3103;49.492;8.474;2023-02-01T05:48:58;6.63;;;4.10;;
6143;SDS011;3103;49.492;8.474;2023-02-01T05:51:25;6.20;;;3.80;;
6143;SDS011;3103;49.492;8.474;2023-02-01T05:53:52;6.93;;;4.43;;
6143;SDS011;3103;49.492;8.474;2023-02-01T05:56:19;5.03;;;3.63;;
6143;SDS011;3103;49.492;8.474;2023-02-01T05:58:45;6.43;;;3.60;;
6143;SDS011;3103;49.492;8.474;2023-02-01T06:01:12;10.07;;;3.83;;
6143;SDS011;3103;49.492;8.474;2023-02-01T06:03:39;8.00;;;4.07;;
6143;SDS011;3103;49.492;8.474;2023-02-01T06:06:05;6.50;;;3.67;;
6143;SDS011;3103;49.492;8.474;2023-02-01T06:08:32;5.10;;;3.67;;
6143;SDS011;3103;49.492;8.474;2023-02-01T06:10:59;4.17;;;3.20;;
6143;SDS011;3103;49.492;8.474;2023-02-01T06:13:27;11.13;;;3.50;;
6143;SDS011;3103;49.492;8.474;2023-02-01T06:15:54;6.40;;;3.27;;
6143;SDS011;3103;49.492;8.474;2023-02-01T06:18:22;3.33;;;3.03;;
6143;SDS011;3103;49.492;8.474;2023-02-01T06:20:53;7.07;;;3.23;;
6143;SDS011;3103;49.492;8.474;2023-02-01T06:23:24;6.67;;;3.50;;
6143;SDS011;3103;49.492;8.474;2023-02-01T06:25:51;5.67;;;3.33;;
6143;SDS011;3103;49.492;8.474;2023-02-01T06:28:19;6.57;;;3.97;;
6143;SDS011;3103;49.492;8.474;2023-02-01T06:30:46;4.37;;;3.40;;
6143;SDS011;3103;49.492;8.474;2023-02-01T06:33:13;10.30;;;3.77;;
6143;SDS011;3103;49.492;8.474;2023-02-01T06:35:42;7.23;;;3.43;;
6143;SDS011;3103;49.492;8.474;2023-02-01T06:38:19;6.93;;;4.93;;
6143;SDS011;3103;49.492;8.474;2023-02-01T06:40:46;4.63;;;3.20;;
6143;SDS011;3103;49.492;8.474;2023-02-01T06:43:19;4.47;;;3.33;;
6143;SDS011;3103;49.492;8.474;2023-02-01T06:45:46;5.03;;;2.97;;
6143;SDS011;3103;49.492;8.474;2023-02-01T06:48:13;6.00;;;3.37;;
6143;SDS011;3103;49.492;8.474;2023-02-01T06:50:39;5.47;;;3.60;;
6143;SDS011;3103;49.492;8.474;2023-02-01T06:53:06;7.90;;;4.13;;
6143;SDS011;3103;49.492;8.474;2023-02-01T06:55:33;10.63;;;3.27;;
6143;SDS011;3103;49.492;8.474;2023-02-01T06:58:00;8.60;;;3.40;;
6143;SDS011;3103;49.492;8.474;2023-02-01T07:00:28;5.90;;;3.53;;
6143;SDS011;3103;49.492;8.474;2023-02-01T07:02:57;6.10;;;3.47;;
6143;SDS011;3103;49.492;8.474;2023-02-01T07:05:24;6.47;;;3.37;;
6143;SDS011;3103;49.492;8.474;2023-02-01T07:07:50;10.63;;;3.80;;
6143;SDS011;3103;49.492;8.474;2023-02-01T07:10:17;8.90;;;3.30;;
6143;SDS011;3103;49.492;8.474;2023-02-01T07:12:44;6.60;;;3.43;;
6143;SDS011;3103;49.492;8.474;2023-02-01T07:15:10;10.50;;;3.83;;
6143;SDS011;3103;49.492;8.474;2023-02-01T07:17:37;8.87;;;3.67;;
6143;SDS011;3103;49.492;8.474;2023-02-01T07:20:04;10.63;;;3.93;;
6143;SDS011;3103;49.492;8.474;2023-02-01T07:22:31;7.87;;;3.10;;
6143;SDS011;3103;49.492;8.474;2023-02-01T07:24:58;5.47;;;3.30;;
6143;SDS011;3103;49.492;8.474;2023-02-01T07:27:25;5.67;;;3.40;;
6143;SDS011;3103;49.492;8.474;2023-02-01T07:29:51;5.10;;;3.47;;
6143;SDS011;3103;49.492;8.474;2023-02-01T07:32:18;6.10;;;3.20;;
6143;SDS011;3103;49.492;8.474;2023-02-01T07:34:45;7.80;;;3.60;;
6143;SDS011;3103;49.492;8.474;2023-02-01T07:37:12;5.20;;;3.20;;
6143;SDS011;3103;49.492;8.474;2023-02-01T07:39:38;3.97;;;3.10;;
6143;SDS011;3103;49.492;8.474;2023-02-01T07:42:05;8.03;;;3.70;;
6143;SDS011;3103;49.492;8.474;2023-02-01T07:44:32;5.33;;;3.40;;
6143;SDS011;3103;49.492;8.474;2023-02-01T07:46:59;9.57;;;3.20;;
6143;SDS011;3103;49.492;8.474;2023-02-01T07:49:25;5.50;;;3.20;;
6143;SDS011;3103;49.492;8.474;2023-02-01T07:51:52;11.13;;;3.33;;
6143;SDS011;3103;49.492;8.474;2023-02-01T07:54:19;5.30;;;3.20;;
6143;SDS011;3103;49.492;8.474;2023-02-01T07:56:45;7.53;;;3.70;;
6143;SDS011;3103;49.492;8.474;2023-02-01T07:59:12;5.17;;;2.83;;
6143;SDS011;3103;49.492;8.474;2023-02-01T08:01:39;3.77;;;2.83;;
6143;SDS011;3103;49.492;8.474;2023-02-01T08:04:06;6.03;;;3.10;;
6143;SDS011;3103;49.492;8.474;2023-02-01T08:06:35;6.87;;;3.53;;
6143;SDS011;3103;49.492;8.474;2023-02-01T08:09:02;5.33;;;3.07;;
6143;SDS011;3103;49.492;8.474;2023-02-01T08:11:30;5.13;;;3.07;;
6143;SDS011;3103;49.492;8.474;2023-02-01T08:13:58;6.67;;;4.37;;
6143;SDS011;3103;49.492;8.474;2023-02-01T08:16:25;11.07;;;3.60;;
6143;SDS011;3103;49.492;8.474;2023-02-01T08:18:52;7.57;;;3.50;;
6143;SDS011;3103;49.492;8.474;2023-02-01T08:21:22;5.83;;;2.70;;
6143;SDS011;3103;49.492;8.474;2023-02-01T08:23:50;5.37;;;2.80;;
6143;SDS011;3103;49.492;8.474;2023-02-01T08:26:19;6.53;;;3.63;;
6143;SDS011;3103;49.492;8.474;2023-02-01T08:28:51;6.13;;;3.30;;
6143;SDS011;3103;49.492;8.474;2023-02-01T08:31:21;5.07;;;2.90;;
6143;SDS011;3103;49.492;8.474;2023-02-01T08:33:50;7.40;;;2.83;;
6143;SDS011;3103;49.492;8.474;2023-02-01T08:36:19;4.77;;;2.70;;
6143;SDS011;3103;49.492;8.474;2023-02-01T08:38:47;9.77;;;3.00;;
6143;SDS011;3103;49.492;8.474;2023-02-01T08:41:15;7.10;;;3.10;;
6143;SDS011;3103;49.492;8.474;2023-02-01T08:43:43;11.77;;;3.83;;
6143;SDS011;3103;49.492;8.474;2023-02-01T08:46:10;7.87;;;3.30;;
6143;SDS011;3103;49.492;8.474;2023-02-01T08:48:37;11.83;;;3.50;;
6143;SDS011;3103;49.492;8.474;2023-02-01T08:51:05;4.67;;;3.10;;
6143;SDS011;3103;49.492;8.474;2023-02-01T08:53:34;10.37;;;3.37;;
6143;SDS011;3103;49.492;8.474;2023-02-01T08:56:02;7.27;;;3.93;;
6143;SDS011;3103;49.492;8.474;2023-02-01T08:58:29;12.50;;;3.43;;
6143;SDS011;3103;49.492;8.474;2023-02-01T09:00:56;7.60;;;2.93;;
6143;SDS011;3103;49.492;8.474;2023-02-01T09:03:24;10.07;;;3.40;;
6143;SDS011;3103;49.492;8.474;2023-02-01T09:05:52;11.00;;;3.80;;
6143;SDS011;3103;49.492;8.474;2023-02-01T09:08:19;9.57;;;4.10;;
6143;SDS011;3103;49.492;8.474;2023-02-01T09:10:46;7.90;;;3.63;;
6143;SDS011;3103;49.492;8.474;2023-02-01T09:13:13;7.97;;;4.33;;
6143;SDS011;3103;49.492;8.474;2023-02-01T09:15:40;12.10;;;3.60;;
6143;SDS011;3103;49.492;8.474;2023-02-01T09:18:07;16.33;;;5.47;;
6143;SDS011;3103;49.492;8.474;2023-02-01T09:20:33;16.37;;;5.50;;
6143;SDS011;3103;49.492;8.474;2023-02-01T09:23:00;16.40;;;4.63;;
6143;SDS011;3103;49.492;8.474;2023-02-01T09:25:27;11.00;;;4.80;;
6143;SDS011;3103;49.492;8.474;2023-02-01T09:27:54;12.37;;;5.10;;
6143;SDS011;3103;49.492;8.474;2023-02-01T09:30:21;13.00;;;5.13;;
6143;SDS011;3103;49.492;8.474;2023-02-01T09:32:48;12.37;;;4.13;;
6143;SDS011;3103;49.492;8.474;2023-02-01T09:35:15;8.50;;;3.50;;
6143;SDS011;3103;49.492;8.474;2023-02-01T09:37:42;13.60;;;5.40;;
6143;SDS011;3103;49.492;8.474;2023-02-01T09:40:13;10.80;;;3.90;;
6143;SDS011;3103;49.492;8.474;2023-02-01T09:48:20;22.10;;;5.13;;
6143;SDS011;3103;49.492;8.474;2023-02-01T09:50:53;11.40;;;4.40;;
6143;SDS011;3103;49.492;8.474;2023-02-01T09:53:24;7.93;;;3.57;;
6143;SDS011;3103;49.492;8.474;2023-02-01T09:56:00;10.47;;;4.03;;
6143;SDS011;3103;49.492;8.474;2023-02-01T09:58:34;10.63;;;4.17;;
6143;SDS011;3103;49.492;8.474;2023-02-01T10:01:04;12.43;;;4.83;;
6143;SDS011;3103;49.492;8.474;2023-02-01T10:03:37;9.40;;;4.37;;
6143;SDS011;3103;49.492;8.474;2023-02-01T10:23:03;7.17;;;3.13;;
6143;SDS011;3103;49.492;8.474;2023-02-01T10:26:01;4.43;;;2.80;;
6143;SDS011;3103;49.492;8.474;2023-02-01T10:28:44;11.20;;;4.40;;
6143;SDS011;3103;49.492;8.474;2023-02-01T10:31:15;11.27;;;3.47;;
6143;SDS011;3103;49.492;8.474;2023-02-01T10:33:44;12.00;;;4.23;;
6143;SDS011;3103;49.492;8.474;2023-02-01T10:36:16;8.73;;;3.50;;
6143;SDS011;3103;49.492;8.474;2023-02-01T10:38:57;8.57;;;3.97;;
6143;SDS011;3103;49.492;8.474;2023-02-01T10:41:27;10.27;;;2.90;;
6143;SDS011;3103;49.492;8.474;2023-02-01T10:43:59;13.07;;;3.30;;
6143;SDS011;3103;49.492;8.474;2023-02-01T10:46:30;7.80;;;4.10;;
6143;SDS011;3103;49.492;8.474;2023-02-01T10:48:58;10.50;;;3.87;;
6143;SDS011;3103;49.492;8.474;2023-02-01T10:54:04;15.40;;;4.00;;
6143;SDS011;3103;49.492;8.474;2023-02-01T10:56:40;13.40;;;5.33;;
6143;SDS011;3103;49.492;8.474;2023-02-01T10:59:16;13.10;;;4.20;;
6143;SDS011;3103;49.492;8.474;2023-02-01T11:01:47;11.70;;;3.83;;
6143;SDS011;3103;49.492;8.474;2023-02-01T11:04:16;6.27;;;3.80;;
6143;SDS011;3103;49.492;8.474;2023-02-01T11:06:45;10.10;;;3.73;;
6143;SDS011;3103;49.492;8.474;2023-02-01T11:09:19;14.13;;;6.30;;
6143;SDS011;3103;49.492;8.474;2023-02-01T11:14:16;13.07;;;5.00;;
6143;SDS011;3103;49.492;8.474;2023-02-01T11:17:01;16.73;;;5.80;;
6143;SDS011;3103;49.492;8.474;2023-02-01T11:19:54;17.50;;;5.17;;
6143;SDS011;3103;49.492;8.474;2023-02-01T11:22:24;11.07;;;4.77;;
6143;SDS011;3103;49.492;8.474;2023-02-01T11:24:53;15.60;;;4.37;;
6143;SDS011;3103;49.492;8.474;2023-02-01T11:27:20;16.37;;;4.53;;
6143;SDS011;3103;49.492;8.474;2023-02-01T11:29:55;14.13;;;5.70;;
6143;SDS011;3103;49.492;8.474;2023-02-01T11:32:29;15.50;;;6.00;;
6143;SDS011;3103;49.492;8.474;2023-02-01T11:34:57;9.97;;;5.27;;
6143;SDS011;3103;49.492;8.474;2023-02-01T11:37:37;16.87;;;6.07;;
6143;SDS011;3103;49.492;8.474;2023-02-01T11:42:59;9.43;;;3.50;;
6143;SDS011;3103;49.492;8.474;2023-02-01T11:45:35;5.50;;;3.17;;
6143;SDS011;3103;49.492;8.474;2023-02-01T11:48:08;10.10;;;3.27;;
6143;SDS011;3103;49.492;8.474;2023-02-01T11:50:49;11.60;;;3.40;;
6143;SDS011;3103;49.492;8.474;2023-02-01T11:56:15;13.30;;;3.73;;
6143;SDS011;3103;49.492;8.474;2023-02-01T11:58:58;10.63;;;3.10;;
6143;SDS011;3103;49.492;8.474;2023-02-01T12:30:24;19.33;;;5.83;;
6143;SDS011;3103;49.492;8.474;2023-02-01T12:33:23;20.70;;;7.20;;
6143;SDS011;3103;49.492;8.474;2023-02-01T12:36:06;16.47;;;5.67;;
6143;SDS011;3103;49.492;8.474;2023-02-01T12:41:47;16.13;;;5.33;;
6143;SDS011;3103;49.492;8.474;2023-02-01T12:52:52;19.17;;;4.27;;
6143;SDS011;3103;49.492;8.474;2023-02-01T12:55:32;9.00;;;3.80;;
6143;SDS011;3103;49.492;8.474;2023-02-01T13:01:02;12.17;;;4.40;;
6143;SDS011;3103;49.492;8.474;2023-02-01T13:12:13;12.23;;;4.47;;
6143;SDS011;3103;49.492;8.474;2023-02-01T13:17:42;10.33;;;3.87;;
6143;SDS011;3103;49.492;8.474;2023-02-01T13:20:21;14.93;;;4.50;;
6143;SDS011;3103;49.492;8.474;2023-02-01T13:22:57;11.83;;;4.03;;
6143;SDS011;3103;49.492;8.474;2023-02-01T13:25:37;8.47;;;4.50;;
6143;SDS011;3103;49.492;8.474;2023-02-01T13:28:14;12.00;;;3.60;;
6143;SDS011;3103;49.492;8.474;2023-02-01T13:31:14;12.40;;;4.07;;
6143;SDS011;3103;49.492;8.474;2023-02-01T13:36:30;12.50;;;4.47;;
6143;SDS011;3103;49.492;8.474;2023-02-01T13:47:34;12.97;;;4.20;;
6143;SDS011;3103;49.492;8.474;2023-02-01T13:50:29;13.27;;;4.33;;
6143;SDS011;3103;49.492;8.474;2023-02-01T13:53:01;12.93;;;4.43;;
6143;SDS011;3103;49.492;8.474;2023-02-01T13:55:32;8.03;;;3.33;;
6143;SDS011;3103;49.492;8.474;2023-02-01T13:58:15;11.37;;;4.97;;
6143;SDS011;3103;49.492;8.474;2023-02-01T14:00:48;10.83;;;4.90;;
6143;SDS011;3103;49.492;8.474;2023-02-01T14:03:21;9.60;;;4.30;;
6143;SDS011;3103;49.492;8.474;2023-02-01T14:06:33;13.17;;;4.70;;
6143;SDS011;3103;49.492;8.474;2023-02-01T14:11:50;11.17;;;5.77;;
6143;SDS011;3103;49.492;8.474;2023-02-01T14:21:52;9.70;;;4.33;;
6143;SDS011;3103;49.492;8.474;2023-02-01T14:24:25;11.27;;;4.03;;
6143;SDS011;3103;49.492;8.474;2023-02-01T14:26:53;10.63;;;4.37;;
6143;SDS011;3103;49.492;8.474;2023-02-01T14:32:00;12.20;;;4.13;;
6143;SDS011;3103;49.492;8.474;2023-02-01T14:34:49;12.03;;;5.00;;
6143;SDS011;3103;49.492;8.474;2023-02-01T14:39:50;19.60;;;6.67;;
6143;SDS011;3103;49.492;8.474;2023-02-01T14:42:35;11.17;;;4.07;;
6143;SDS011;3103;49.492;8.474;2023-02-01T14:47:46;7.93;;;3.70;;
6143;SDS011;3103;49.492;8.474;2023-02-01T14:50:20;17.13;;;4.53;;
6143;SDS011;3103;49.492;8.474;2023-02-01T14:55:59;6.97;;;3.17;;
6143;SDS011;3103;49.492;8.474;2023-02-01T14:58:52;10.57;;;4.10;;
6143;SDS011;3103;49.492;8.474;2023-02-01T15:01:26;12.83;;;4.70;;
6143;SDS011;3103;49.492;8.474;2023-02-01T15:06:43;14.93;;;5.17;;
6143;SDS011;3103;49.492;8.474;2023-02-01T15:09:16;16.50;;;4.80;;
6143;SDS011;3103;49.492;8.474;2023-02-01T15:14:30;8.57;;;4.00;;
6143;SDS011;3103;49.492;8.474;2023-02-01T15:17:22;8.23;;;3.57;;
6143;SDS011;3103;49.492;8.474;2023-02-01T15:22:20;14.60;;;5.93;;
6143;SDS011;3103;49.492;8.474;2023-02-01T15:24:54;10.67;;;5.07;;
6143;SDS011;3103;49.492;8.474;2023-02-01T15:27:22;13.73;;;5.60;;
6143;SDS011;3103;49.492;8.474;2023-02-01T15:29:49;13.93;;;6.17;;
6143;SDS011;3103;49.492;8.474;2023-02-01T15:32:29;13.73;;;5.20;;
6143;SDS011;3103;49.492;8.474;2023-02-01T15:35:31;12.10;;;4.10;;
6143;SDS011;3103;49.492;8.474;2023-02-01T15:40:58;11.17;;;4.40;;
6143;SDS011;3103;49.492;8.474;2023-02-01T15:43:28;13.23;;;4.87;;
6143;SDS011;3103;49.492;8.474;2023-02-01T15:45:57;17.73;;;6.00;;
6143;SDS011;3103;49.492;8.474;2023-02-01T15:48:26;10.10;;;4.30;;
6143;SDS011;3103;49.492;8.474;2023-02-01T15:50:58;13.63;;;3.70;;
6143;SDS011;3103;49.492;8.474;2023-02-01T15:53:26;10.67;;;3.77;;
6143;SDS011;3103;49.492;8.474;2023-02-01T15:55:58;12.93;;;4.47;;
6143;SDS011;3103;49.492;8.474;2023-02-01T15:58:27;16.30;;;5.90;;
6143;SDS011;3103;49.492;8.474;2023-02-01T16:00:56;10.50;;;3.73;;
6143;SDS011;3103;49.492;8.474;2023-02-01T16:06:04;15.60;;;5.73;;
6143;SDS011;3103;49.492;8.474;2023-02-01T16:08:33;13.03;;;5.50;;
6143;SDS011;3103;49.492;8.474;2023-02-01T16:11:12;10.87;;;3.77;;
6143;SDS011;3103;49.492;8.474;2023-02-01T16:13:46;15.73;;;4.70;;
6143;SDS011;3103;49.492;8.474;2023-02-01T16:16:13;7.53;;;3.50;;
6143;SDS011;3103;49.492;8.474;2023-02-01T16:18:40;19.30;;;4.53;;
6143;SDS011;3103;49.492;8.474;2023-02-01T16:21:08;15.37;;;4.17;;
6143;SDS011;3103;49.492;8.474;2023-02-01T16:23:35;9.93;;;3.03;;
6143;SDS011;3103;49.492;8.474;2023-02-01T16:26:03;10.13;;;4.17;;
6143;SDS011;3103;49.492;8.474;2023-02-01T16:28:30;15.93;;;4.53;;
6143;SDS011;3103;49.492;8.474;2023-02-01T16:30:57;12.87;;;4.80;;
6143;SDS011;3103;49.492;8.474;2023-02-01T16:33:25;18.13;;;4.20;;
6143;SDS011;3103;49.492;8.474;2023-02-01T16:35:54;8.00;;;2.90;;
6143;SDS011;3103;49.492;8.474;2023-02-01T16:38:26;11.73;;;3.87;;
6143;SDS011;3103;49.492;8.474;2023-02-01T16:40:53;17.57;;;4.87;;
6143;SDS011;3103;49.492;8.474;2023-02-01T16:43:23;10.53;;;4.60;;
6143;SDS011;3103;49.492;8.474;2023-02-01T16:45:53;13.40;;;4.43;;
6143;SDS011;3103;49.492;8.474;2023-02-01T16:48:23;12.80;;;5.33;;
6143;SDS011;3103;49.492;8.474;2023-02-01T16:51:00;10.23;;;3.47;;
6143;SDS011;3103;49.492;8.474;2023-02-01T16:53:32;13.20;;;4.67;;
6143;SDS011;3103;49.492;8.474;2023-02-01T16:56:21;12.03;;;4.27;;
6143;SDS011;3103;49.492;8.474;2023-02-01T16:58:49;4.23;;;3.00;;
6143;SDS011;3103;49.492;8.474;2023-02-01T17:01:17;11.50;;;4.00;;
6143;SDS011;3103;49.492;8.474;2023-02-01T17:03:45;10.03;;;3.80;;
6143;SDS011;3103;49.492;8.474;2023-02-01T17:06:14;8.70;;;4.40;;
6143;SDS011;3103;49.492;8.474;2023-02-01T17:08:47;10.70;;;3.87;;
6143;SDS011;3103;49.492;8.474;2023-02-01T17:11:17;9.93;;;3.93;;
6143;SDS011;3103;49.492;8.474;2023-02-01T17:13:44;10.83;;;4.00;;
6143;SDS011;3103;49.492;8.474;2023-02-01T17:19:04;10.67;;;4.60;;
6143;SDS011;3103;49.492;8.474;2023-02-01T17:21:36;12.07;;;4.90;;
6143;SDS011;3103;49.492;8.474;2023-02-01T17:24:09;13.60;;;4.33;;
6143;SDS011;3103;49.492;8.474;2023-02-01T17:26:41;13.20;;;5.00;;
6143;SDS011;3103;49.492;8.474;2023-02-01T17:29:08;15.57;;;4.27;;
6143;SDS011;3103;49.492;8.474;2023-02-01T17:31:37;8.23;;;3.27;;
6143;SDS011;3103;49.492;8.474;2023-02-01T17:34:10;8.70;;;3.33;;
6143;SDS011;3103;49.492;8.474;2023-02-01T17:36:41;12.90;;;4.10;;
6143;SDS011;3103;49.492;8.474;2023-02-01T17:39:08;11.20;;;3.63;;
6143;SDS011;3103;49.492;8.474;2023-02-01T17:41:36;10.97;;;3.40;;
6143;SDS011;3103;49.492;8.474;2023-02-01T17:44:03;8.97;;;3.67;;
6143;SDS011;3103;49.492;8.474;2023-02-01T17:46:30;9.83;;;3.67;;
6143;SDS011;3103;49.492;8.474;2023-02-01T17:48:57;9.80;;;2.90;;
6143;SDS011;3103;49.492;8.474;2023-02-01T17:51:25;16.23;;;6.57;;
6143;SDS011;3103;49.492;8.474;2023-02-01T17:53:53;14.60;;;5.17;;
6143;SDS011;3103;49.492;8.474;2023-02-01T17:56:21;9.73;;;5.03;;
6143;SDS011;3103;49.492;8.474;2023-02-01T17:58:51;14.57;;;4.57;;
6143;SDS011;3103;49.492;8.474;2023-02-01T18:01:23;13.80;;;5.90;;
6143;SDS011;3103;49.492;8.474;2023-02-01T18:03:50;8.87;;;4.67;;
6143;SDS011;3103;49.492;8.474;2023-02-01T18:06:18;14.83;;;4.87;;
6143;SDS011;3103;49.492;8.474;2023-02-01T18:08:48;17.90;;;3.90;;
6143;SDS011;3103;49.492;8.474;2023-02-01T18:11:20;16.37;;;6.03;;
6143;SDS011;3103;49.492;8.474;2023-02-01T18:13:48;15.10;;;4.53;;
6143;SDS011;3103;49.492;8.474;2023-02-01T18:16:23;14.50;;;4.27;;